Henderson, NV (89044)

9:04 PM PDT on August 29, 2015 (GMT -0700)
APRSWXNET | | Change Station
CLOSE
Current Station
Personal Weather Station
Location: Henderson, NV
Elevation: 2402 ft
Nearby Weather Stations

Elev 2402 ft 35.99 °N, 115.12 °W | Updated 25 minutes ago

Clear
Clear
92 °F
Feels Like 88 °F
N
1
Wind Variable Wind from SSE
Gusts 6.0 mph

Today
High -- | Low -- °F
--% Chance of Precip.
Yesterday
High -- | Low -- °F
Precip. -- in
6:09 AM 7:12 PM
Full, 100% visible
Pressure 29.67 in
Visibility 10.0 miles
Clouds Few 12000 ft
Few 25000 ft
Heat Index 88 °F
Dew Point 42 °F
Humidity 18%
Rainfall in
Snow Depth Not available.
UV 0 out of 12
Pollen 6.60 out of 12
Air Quality Not available.
Flu Activity Not available.
METAR KLAS 300356Z 22007KT 10SM FEW120 FEW250 37/05 A2977 RMK AO2 SLP047 T03670050
Pressure 29.67 in
Visibility 10.0 miles
Clouds Few 12000 ft
Few 25000 ft
Heat Index 88 °F
Dew Point 42 °F
Humidity 18%
Rainfall in
Snow Depth Not available.
UV 0 out of 12
Pollen 6.60 out of 12
Air Quality Not available.
Flu Activity Not available.
METAR KLAS 300356Z 22007KT 10SM FEW120 FEW250 37/05 A2977 RMK AO2 SLP047 T03670050

10-Day Weather Forecast

×

Almanac

Astronomy

Aug. 29, 2015 Rise Set
Actual Time
Civil Twilight
Nautical Twilight
Astronomical Twilight
Moon
Length of Visible Light
Length of Day
Tomorrow will be .
, % of the Moon is Illuminated

Today's Extremes

State Highs State Lows

Community

WunderPhotos

Upload Photos

1,850,876 photos uploaded!

WunderBlogs® & News

Nearby

Air Quality

  Air Quality AQ Index Pollutant
Not available.

Snow Depth

Station Depth Elevation

Earthquake Activity

City Distance Mag. Time & Date
Minimum magnitude displayed is 2.5.

Coastal Water Temperatures

Place Temperature

Stations

Nearby Weather Stations

Station Location Temp. Windchill Dew Point Humidity Wind Precip. Elev Updated Type